Time;durP1;ratioP1;P1;durP2;ratioP2;P2;SDS_P1;SDS_P2;PMS_P1;PMS_P2;Temp;Humidity;BMP_temperature;BMP_pressure;BME280_temperature;BME280_humidity;BME280_pressure;Samples;Min_cycle;Max_cycle;Signal;HPM_P1;HPM_P2
2022/05/04 00:00:06;;;;;;;27.60;16.33;;;12.10;99.90;;;;;;5112607;28;20315;-67
2022/05/04 00:02:31;;;;;;;28.10;16.40;;;12.00;99.90;;;;;;5112721;28;20176;-68
2022/05/04 00:04:57;;;;;;;29.63;17.33;;;12.10;99.90;;;;;;5112618;28;20209;-68
2022/05/04 00:07:23;;;;;;;32.13;18.10;;;12.10;99.90;;;;;;5113178;28;20174;-67
2022/05/04 00:09:49;;;;;;;35.23;19.40;;;12.20;99.90;;;;;;5111669;28;20171;-68
2022/05/04 00:12:14;;;;;;;36.75;19.20;;;12.20;99.90;;;;;;5111993;28;20733;-68
2022/05/04 00:14:40;;;;;;;32.17;18.30;;;12.20;99.90;;;;;;5112168;28;20230;-68
2022/05/04 00:17:06;;;;;;;34.00;18.67;;;12.20;99.90;;;;;;5112954;28;20262;-67
2022/05/04 00:19:32;;;;;;;32.63;19.00;;;12.20;99.90;;;;;;5112953;28;20171;-68
2022/05/04 00:21:57;;;;;;;34.17;19.90;;;12.20;99.90;;;;;;5111628;28;20667;-68
2022/05/04 00:24:23;;;;;;;32.60;19.10;;;12.20;99.90;;;;;;5113074;28;20196;-68
2022/05/04 00:26:49;;;;;;;36.30;20.43;;;12.20;99.90;;;;;;5112833;28;20167;-68
2022/05/04 00:29:14;;;;;;;37.40;19.93;;;12.20;99.90;;;;;;5112773;28;20171;-68
2022/05/04 00:31:40;;;;;;;34.73;20.07;;;12.20;99.90;;;;;;5112117;28;20290;-69
2022/05/04 00:34:07;;;;;;;32.47;19.05;;;12.20;99.90;;;;;;5112122;28;20174;-68
2022/05/04 00:36:33;;;;;;;29.85;18.95;;;12.30;99.90;;;;;;5112093;28;20191;-69
2022/05/04 00:38:58;;;;;;;33.73;18.70;;;12.20;99.90;;;;;;5112421;28;20255;-68
2022/05/04 00:41:24;;;;;;;42.10;20.93;;;12.20;99.90;;;;;;5111664;28;20228;-67
2022/05/04 00:43:51;;;;;;;36.57;20.83;;;12.20;99.90;;;;;;5111940;28;20216;-61
2022/05/04 00:46:17;;;;;;;36.58;19.58;;;12.20;99.90;;;;;;5112017;28;20199;-67
2022/05/04 00:48:43;;;;;;;34.72;19.05;;;12.20;99.90;;;;;;5111905;28;20637;-67
2022/05/04 00:51:09;;;;;;;32.23;19.20;;;12.10;99.90;;;;;;5111495;28;20219;-67
2022/05/04 00:53:38;;;;;;;34.37;18.30;;;12.10;99.90;;;;;;5111366;27;20708;-67
2022/05/04 00:56:04;;;;;;;31.07;17.87;;;12.10;99.90;;;;;;5111085;28;20159;-68
2022/05/04 01:01:16;;;;;;;29.50;16.77;;;12.00;99.90;;;;;;5111747;28;20554;-67
2022/05/04 01:03:43;;;;;;;25.80;16.87;;;11.90;99.90;;;;;;5112069;28;20306;-68
2022/05/04 01:06:08;;;;;;;25.93;15.53;;;11.90;99.90;;;;;;5112075;28;20171;-69
2022/05/04 01:08:34;;;;;;;26.70;14.83;;;11.80;99.90;;;;;;5111777;28;20178;-68
2022/05/04 01:11:00;;;;;;;25.73;15.87;;;11.70;99.90;;;;;;5111921;28;20175;-68
2022/05/04 01:13:26;;;;;;;23.90;15.47;;;11.70;99.90;;;;;;5110807;28;20240;-68
2022/05/04 01:15:51;;;;;;;23.30;14.67;;;11.70;99.90;;;;;;5110623;28;20609;-68
2022/05/04 01:18:18;;;;;;;23.93;15.27;;;11.60;99.90;;;;;;5111260;28;20174;-67
2022/05/04 01:20:43;;;;;;;25.83;15.70;;;11.60;99.90;;;;;;5111529;28;20626;-67
2022/05/04 01:23:09;;;;;;;27.90;16.30;;;11.60;99.90;;;;;;5110846;28;20231;-67
2022/05/04 01:25:35;;;;;;;25.87;15.57;;;11.50;99.90;;;;;;5111305;28;20221;-68
2022/05/04 01:28:01;;;;;;;27.00;16.30;;;11.50;99.90;;;;;;5111871;28;20224;-67
2022/05/04 01:30:29;;;;;;;29.40;18.23;;;11.50;99.90;;;;;;5111744;28;20166;-68
2022/05/04 01:32:55;;;;;;;37.60;19.27;;;11.50;99.90;;;;;;5111454;28;20289;-69
2022/05/04 01:35:21;;;;;;;36.03;19.93;;;11.40;99.90;;;;;;5111167;28;20254;-68
2022/05/04 01:37:46;;;;;;;34.23;21.03;;;11.40;99.90;;;;;;5111495;28;20178;-68
2022/05/04 01:40:12;;;;;;;31.40;19.70;;;11.40;99.90;;;;;;5109077;28;20171;-67
2022/05/04 01:42:38;;;;;;;34.80;21.43;;;11.30;99.90;;;;;;5110052;28;20279;-67
2022/05/04 01:45:05;;;;;;;35.57;21.37;;;11.20;99.90;;;;;;5108987;28;20561;-68
2022/05/04 01:47:31;;;;;;;40.50;22.10;;;11.20;99.90;;;;;;5109700;28;20183;-68
2022/05/04 01:49:57;;;;;;;34.70;22.63;;;11.10;99.90;;;;;;5110158;28;20225;-67
2022/05/04 01:52:23;;;;;;;38.90;24.43;;;11.10;99.90;;;;;;5110286;28;20681;-68
2022/05/04 01:54:48;;;;;;;44.13;25.10;;;11.10;99.90;;;;;;5110063;28;20540;-67
2022/05/04 01:57:14;;;;;;;42.03;24.37;;;11.10;99.90;;;;;;5109787;28;20168;-68
2022/05/04 01:59:40;;;;;;;44.93;25.63;;;11.00;99.90;;;;;;5109630;28;20180;-67
2022/05/04 02:02:09;;;;;;;47.73;27.13;;;11.10;99.90;;;;;;5110532;28;20179;-67
2022/05/04 02:04:35;;;;;;;50.57;28.53;;;11.10;99.90;;;;;;5109827;28;20206;-68
2022/05/04 02:07:02;;;;;;;50.60;28.67;;;11.10;99.90;;;;;;5109971;28;20171;-68
2022/05/04 02:09:28;;;;;;;48.17;27.50;;;11.10;99.90;;;;;;5111293;28;20171;-67
2022/05/04 02:11:53;;;;;;;50.13;28.67;;;11.10;99.90;;;;;;5114803;28;20271;-68
2022/05/04 02:14:20;;;;;;;50.53;29.33;;;11.10;99.90;;;;;;5113744;28;20175;-68
2022/05/04 02:16:46;;;;;;;55.70;30.13;;;11.10;99.90;;;;;;5114618;28;20241;-69
2022/05/04 02:19:12;;;;;;;62.47;33.77;;;11.10;99.90;;;;;;5113465;28;20223;-67
2022/05/04 02:21:38;;;;;;;58.13;31.37;;;11.10;99.90;;;;;;5114000;28;20649;-68
2022/05/04 02:24:04;;;;;;;56.23;31.37;;;11.10;99.90;;;;;;5113860;28;20190;-68
2022/05/04 02:26:30;;;;;;;59.13;31.83;;;11.20;99.90;;;;;;5114507;28;20171;-68
2022/05/04 02:28:56;;;;;;;57.63;31.93;;;11.20;99.90;;;;;;5114731;28;20186;-68
2022/05/04 02:31:22;;;;;;;60.40;31.37;;;11.10;99.90;;;;;;5114910;28;20501;-67
2022/05/04 02:33:49;;;;;;;60.03;31.40;;;11.10;99.90;;;;;;5114172;28;20324;-59
2022/05/04 02:38:59;;;;;;;59.27;31.70;;;11.10;99.90;;;;;;5115011;28;20182;-67
2022/05/04 02:41:24;;;;;;;60.30;33.83;;;11.20;99.90;;;;;;5114198;27;20168;-67
2022/05/04 02:43:50;;;;;;;60.90;34.43;;;11.10;99.90;;;;;;5114584;28;20615;-67
2022/05/04 02:46:18;;;;;;;68.23;37.30;;;11.10;99.90;;;;;;5114820;28;20183;-68
2022/05/04 02:48:46;;;;;;;64.33;35.60;;;11.10;99.90;;;;;;5111863;28;20167;-68
2022/05/04 02:51:12;;;;;;;65.37;37.30;;;11.10;99.90;;;;;;5114317;28;20229;-67
2022/05/04 02:53:37;;;;;;;70.77;37.60;;;11.10;99.90;;;;;;5114583;28;20302;-68
2022/05/04 02:56:05;;;;;;;66.20;35.87;;;11.10;99.90;;;;;;5114678;28;20603;-68
2022/05/04 02:58:31;;;;;;;62.93;35.70;;;11.10;99.90;;;;;;5114198;28;20163;-68
2022/05/04 03:02:26;;;;;;;66.03;34.10;;;11.10;99.90;;;;;;5113726;27;20304;-68
2022/05/04 03:03:53;;;;;;;52.80;30.53;;;11.00;99.90;;;;;;5113776;28;20183;-68
2022/05/04 03:06:19;;;;;;;60.13;33.90;;;11.10;99.90;;;;;;5113659;28;20179;-60
2022/05/04 03:08:45;;;;;;;55.40;30.87;;;11.00;99.90;;;;;;5114168;28;20237;-67
2022/05/04 03:13:55;;;;;;;49.53;28.40;;;11.10;99.90;;;;;;5114337;28;20177;-69
2022/05/04 03:16:21;;;;;;;48.40;27.10;;;11.10;99.90;;;;;;5113165;28;20242;-68
2022/05/04 03:18:46;;;;;;;49.93;24.90;;;11.10;99.90;;;;;;5114230;28;20202;-68
2022/05/04 03:21:12;;;;;;;46.63;25.77;;;11.10;99.90;;;;;;5112048;28;20177;-68
2022/05/04 03:23:38;;;;;;;50.30;27.13;;;11.10;99.90;;;;;;5111963;28;20204;-67
2022/05/04 03:26:08;;;;;;;45.43;24.60;;;11.10;99.90;;;;;;5112758;28;20163;-68
2022/05/04 03:28:33;;;;;;;42.17;23.57;;;11.10;99.90;;;;;;5113103;28;20159;-68
2022/05/04 03:30:59;;;;;;;44.30;23.03;;;11.10;99.90;;;;;;5112502;28;20246;-67
2022/05/04 03:33:25;;;;;;;46.83;23.53;;;11.10;99.90;;;;;;5112346;28;20704;-68
2022/05/04 03:35:51;;;;;;;37.10;21.40;;;11.10;99.90;;;;;;5112003;28;20171;-67
2022/05/04 03:38:17;;;;;;;39.23;22.27;;;11.10;99.90;;;;;;5111295;28;20195;-68
2022/05/04 03:40:43;;;;;;;37.93;20.93;;;11.10;99.90;;;;;;5111159;28;20201;-69
2022/05/04 03:43:09;;;;;;;35.90;19.83;;;11.10;99.90;;;;;;5110503;28;20179;-69
2022/05/04 03:45:35;;;;;;;38.43;20.27;;;11.10;99.90;;;;;;5112006;28;20734;-68
2022/05/04 03:48:01;;;;;;;36.00;20.43;;;11.10;99.90;;;;;;5111554;28;20258;-68
2022/05/04 03:50:26;;;;;;;38.00;20.13;;;11.10;99.90;;;;;;5110967;28;20304;-68
2022/05/04 03:52:52;;;;;;;35.17;21.13;;;11.10;99.90;;;;;;5111918;28;20256;-68
2022/05/04 03:55:18;;;;;;;36.73;20.80;;;11.10;99.90;;;;;;5112524;28;20224;-68
2022/05/04 03:57:43;;;;;;;37.33;20.87;;;11.10;99.90;;;;;;5112449;28;20794;-67
2022/05/04 04:00:09;;;;;;;37.67;20.27;;;11.10;99.90;;;;;;5112218;28;20167;-68
2022/05/04 04:02:36;;;;;;;33.80;21.53;;;11.10;99.90;;;;;;5112847;28;20181;-68
2022/05/04 04:05:02;;;;;;;35.07;20.90;;;11.10;99.90;;;;;;5112493;28;20184;-67
2022/05/04 04:07:28;;;;;;;31.60;19.97;;;11.10;99.90;;;;;;5111586;28;20266;-68
2022/05/04 04:09:54;;;;;;;34.27;21.00;;;11.20;99.90;;;;;;5110164;28;20242;-68
2022/05/04 04:12:20;;;;;;;35.90;21.87;;;11.20;99.90;;;;;;5111596;28;20298;-68
2022/05/04 04:14:45;;;;;;;36.43;22.63;;;11.20;99.90;;;;;;5112334;27;20604;-68
2022/05/04 04:17:11;;;;;;;33.87;21.97;;;11.20;99.90;;;;;;5111673;28;20232;-69
2022/05/04 04:19:37;;;;;;;37.87;22.50;;;11.20;99.90;;;;;;5110249;28;20167;-68
2022/05/04 04:22:03;;;;;;;37.07;23.10;;;11.30;99.90;;;;;;5110744;28;20645;-68
2022/05/04 04:24:28;;;;;;;36.07;22.53;;;11.30;99.90;;;;;;5112441;28;20634;-68
2022/05/04 04:26:55;;;;;;;39.13;24.10;;;11.30;99.90;;;;;;5112218;28;20171;-69
2022/05/04 04:29:20;;;;;;;40.87;24.13;;;11.30;99.90;;;;;;5111547;28;20182;-68
2022/05/04 04:31:46;;;;;;;38.83;24.83;;;11.30;99.90;;;;;;5112345;28;20220;-68
2022/05/04 04:34:12;;;;;;;40.37;24.17;;;11.30;99.90;;;;;;5111858;28;20220;-69
2022/05/04 04:36:38;;;;;;;41.70;25.60;;;11.30;99.90;;;;;;5112088;28;20163;-68
2022/05/04 04:39:04;;;;;;;40.67;25.77;;;11.30;99.90;;;;;;5112235;28;20762;-68
2022/05/04 04:41:31;;;;;;;38.43;24.60;;;11.40;99.90;;;;;;5110966;28;20202;-68
2022/05/04 04:43:57;;;;;;;42.67;24.40;;;11.40;99.90;;;;;;5090977;28;20172;-68
2022/05/04 04:46:22;;;;;;;42.33;25.77;;;11.30;99.90;;;;;;5091292;28;20183;-68
2022/05/04 04:48:48;;;;;;;41.97;25.37;;;11.30;99.90;;;;;;5090956;28;20251;-68
2022/05/04 04:51:14;;;;;;;40.80;24.87;;;11.20;99.90;;;;;;5089613;28;20462;-68
2022/05/04 04:53:40;;;;;;;37.53;23.47;;;11.20;99.90;;;;;;5090552;28;20208;-68
2022/05/04 04:56:06;;;;;;;36.53;22.97;;;11.10;99.90;;;;;;5091407;28;20164;-67
2022/05/04 04:58:32;;;;;;;36.47;23.30;;;11.20;99.90;;;;;;5090579;28;20687;-68
2022/05/04 05:00:58;;;;;;;33.90;21.53;;;11.10;99.90;;;;;;5089872;28;20175;-68
2022/05/04 05:03:24;;;;;;;31.27;19.47;;;11.10;99.90;;;;;;5089903;28;20199;-68
2022/05/04 05:05:49;;;;;;;32.37;20.07;;;11.10;99.90;;;;;;5091598;28;20179;-68
2022/05/04 05:08:15;;;;;;;27.77;16.60;;;11.10;99.90;;;;;;5090765;28;20737;-69
2022/05/04 05:10:41;;;;;;;25.33;16.67;;;11.10;99.90;;;;;;5090877;28;20618;-69
2022/05/04 05:13:07;;;;;;;26.63;17.50;;;11.10;99.90;;;;;;5090609;28;20208;-69
2022/05/04 05:18:20;;;;;;;20.07;14.00;;;11.10;99.90;;;;;;5090029;28;20218;-60
2022/05/04 05:20:46;;;;;;;20.03;12.10;;;11.20;99.90;;;;;;5090279;28;20176;-67
2022/05/04 05:23:11;;;;;;;18.23;11.13;;;11.30;99.90;;;;;;5090664;28;20586;-66
2022/05/04 05:25:37;;;;;;;15.47;10.30;;;11.30;99.90;;;;;;5106630;28;20176;-66
2022/05/04 05:28:03;;;;;;;23.07;12.33;;;11.30;99.90;;;;;;5090510;28;20175;-66
2022/05/04 05:30:29;;;;;;;15.07;10.33;;;11.40;99.90;;;;;;5089700;28;20160;-66
2022/05/04 05:32:55;;;;;;;14.57;9.47;;;11.40;99.90;;;;;;5090046;28;20208;-66
2022/05/04 05:35:21;;;;;;;15.30;10.23;;;11.40;99.90;;;;;;5089262;28;20164;-66
2022/05/04 05:37:46;;;;;;;14.10;10.20;;;11.50;99.90;;;;;;5090490;28;20187;-66
2022/05/04 05:40:13;;;;;;;16.53;10.83;;;11.60;99.90;;;;;;5089734;28;20172;-66
2022/05/04 05:42:38;;;;;;;16.40;10.43;;;11.60;99.90;;;;;;5090611;28;20262;-66
2022/05/04 05:45:04;;;;;;;17.42;10.68;;;11.70;99.90;;;;;;5090527;28;20310;-66
2022/05/04 05:47:30;;;;;;;18.37;10.00;;;11.70;99.90;;;;;;5089904;28;20235;-66
2022/05/04 05:49:56;;;;;;;16.67;10.77;;;11.80;99.90;;;;;;5090409;28;20187;-66
2022/05/04 05:52:22;;;;;;;16.43;11.37;;;11.80;99.90;;;;;;5089147;28;20224;-66
2022/05/04 05:54:47;;;;;;;16.97;11.00;;;11.80;99.90;;;;;;5090161;28;20164;-66
2022/05/04 05:57:13;;;;;;;16.10;11.20;;;11.80;99.90;;;;;;5089173;28;20310;-66
2022/05/04 05:59:39;;;;;;;20.00;11.40;;;11.80;99.90;;;;;;5089198;28;20167;-66
2022/05/04 06:02:05;;;;;;;17.73;10.83;;;11.80;99.90;;;;;;5089277;28;20625;-67
2022/05/04 06:04:31;;;;;;;18.13;11.27;;;11.80;99.90;;;;;;5089849;28;20175;-66
2022/05/04 06:06:57;;;;;;;16.90;11.27;;;11.80;99.90;;;;;;5090093;28;20199;-66
2022/05/04 06:09:23;;;;;;;15.30;10.97;;;11.80;99.90;;;;;;5090266;28;20176;-66
2022/05/04 06:11:48;;;;;;;19.03;11.73;;;11.80;99.90;;;;;;5089320;28;20989;-67
2022/05/04 06:14:14;;;;;;;18.80;11.20;;;11.80;99.90;;;;;;5088374;28;20580;-66
2022/05/04 06:16:40;;;;;;;17.17;11.80;;;11.80;99.90;;;;;;5089887;28;20564;-67
2022/05/04 06:19:06;;;;;;;18.20;11.53;;;11.90;99.90;;;;;;5090299;28;20187;-67
2022/05/04 06:21:32;;;;;;;18.40;11.87;;;12.00;99.90;;;;;;5089725;28;20708;-67
2022/05/04 06:23:57;;;;;;;20.20;12.30;;;12.10;99.90;;;;;;5090077;28;20170;-66
2022/05/04 06:26:23;;;;;;;18.83;12.37;;;12.10;99.90;;;;;;5087838;28;20168;-65
2022/05/04 06:28:49;;;;;;;19.60;11.40;;;12.20;99.90;;;;;;5089795;28;20180;-65
2022/05/04 06:34:11;;;;;;;14.87;10.37;;;12.40;99.90;;;;;;5090038;28;20203;-64
2022/05/04 06:36:41;;;;;;;15.77;10.25;;;12.50;99.90;;;;;;5092712;28;20944;-65
2022/05/04 06:39:10;;;;;;;14.53;10.17;;;12.60;99.90;;;;;;5108579;28;20176;-66
2022/05/04 06:41:38;;;;;;;15.90;9.98;;;12.60;99.90;;;;;;5110283;28;20194;-65
2022/05/04 06:44:05;;;;;;;15.52;10.02;;;12.60;99.90;;;;;;5110278;28;20184;-66
2022/05/04 06:46:31;;;;;;;14.77;9.60;;;12.70;99.90;;;;;;5109698;28;20724;-66
2022/05/04 06:48:57;;;;;;;11.37;8.83;;;12.70;99.90;;;;;;5110452;28;20171;-62
2022/05/04 06:51:23;;;;;;;13.68;8.98;;;12.90;99.90;;;;;;5108645;28;20221;-61
2022/05/04 06:53:49;;;;;;;13.18;8.75;;;12.90;99.90;;;;;;5109971;28;20681;-61
2022/05/04 06:56:15;;;;;;;16.07;9.53;;;12.90;99.90;;;;;;5110228;28;20174;-61
2022/05/04 06:58:41;;;;;;;13.70;8.77;;;13.00;99.90;;;;;;5112596;28;20183;-61
2022/05/04 07:01:08;;;;;;;16.73;8.50;;;13.00;99.90;;;;;;5112663;28;20184;-61
2022/05/04 07:03:34;;;;;;;12.40;7.53;;;13.00;99.90;;;;;;5113560;28;20648;-61
2022/05/04 07:05:59;;;;;;;11.95;8.00;;;12.90;99.90;;;;;;5111382;28;20186;-61
2022/05/04 07:08:25;;;;;;;13.35;7.85;;;12.90;99.90;;;;;;5112777;28;20175;-60
2022/05/04 07:10:51;;;;;;;12.15;8.80;;;13.00;99.90;;;;;;5112546;28;20171;-61
2022/05/04 07:13:17;;;;;;;9.98;7.53;;;13.00;99.90;;;;;;5112771;28;20207;-63
2022/05/04 07:15:43;;;;;;;12.85;7.55;;;13.10;99.90;;;;;;5112474;28;20167;-60
2022/05/04 07:18:09;;;;;;;11.52;7.60;;;13.20;99.90;;;;;;5113712;28;20179;-60
2022/05/04 07:20:35;;;;;;;13.65;7.55;;;13.30;99.90;;;;;;5114016;27;20183;-60
2022/05/04 07:23:00;;;;;;;14.02;7.80;;;13.20;99.90;;;;;;5112551;28;20769;-60
2022/05/04 07:25:26;;;;;;;12.40;7.70;;;13.30;99.90;;;;;;5112381;28;20167;-64
2022/05/04 07:27:52;;;;;;;11.50;7.72;;;13.30;99.90;;;;;;5113655;28;20193;-59
2022/05/04 07:30:18;;;;;;;10.90;7.20;;;13.20;99.90;;;;;;5112300;28;20175;-61
2022/05/04 07:32:44;;;;;;;9.02;6.95;;;13.20;99.90;;;;;;5111974;28;20219;-61
2022/05/04 07:35:10;;;;;;;12.88;7.65;;;13.10;99.90;;;;;;5113378;28;20190;-60
2022/05/04 07:37:36;;;;;;;13.02;7.43;;;13.20;99.90;;;;;;5113358;28;20172;-60
2022/05/04 07:42:47;;;;;;;10.32;6.97;;;13.20;99.90;;;;;;5113975;28;20197;-61
2022/05/04 07:45:15;;;;;;;9.70;7.15;;;13.20;99.90;;;;;;5113472;28;20168;-61
2022/05/04 07:47:41;;;;;;;11.63;7.18;;;13.20;99.90;;;;;;5111060;28;20186;-61
2022/05/04 07:50:09;;;;;;;11.50;7.25;;;13.20;99.90;;;;;;5113044;28;20168;-61
2022/05/04 07:52:34;;;;;;;10.60;6.93;;;13.30;99.90;;;;;;5112896;28;20227;-61
2022/05/04 07:55:02;;;;;;;8.75;6.15;;;13.20;99.90;;;;;;5113036;28;20183;-61
2022/05/04 07:57:28;;;;;;;12.57;6.13;;;13.20;99.90;;;;;;5112778;28;20703;-62
2022/05/04 08:05:39;;;;;;;8.63;6.35;;;13.20;99.90;;;;;;5112954;28;20206;-60
2022/05/04 08:08:04;;;;;;;7.63;5.50;;;13.20;99.90;;;;;;5112457;28;20167;-61
2022/05/04 08:10:31;;;;;;;8.90;5.65;;;13.10;99.90;;;;;;5112272;28;20178;-61
2022/05/04 08:12:58;;;;;;;7.23;5.47;;;13.10;99.90;;;;;;5111072;28;20210;-63
2022/05/04 08:15:24;;;;;;;8.37;5.60;;;13.00;99.90;;;;;;5112579;28;20175;-63
2022/05/04 08:17:50;;;;;;;9.93;6.10;;;13.10;99.90;;;;;;5112520;28;20178;-64
2022/05/04 08:20:16;;;;;;;7.80;6.35;;;13.00;99.90;;;;;;5112335;28;20171;-66
2022/05/04 08:22:43;;;;;;;9.20;6.13;;;13.00;99.90;;;;;;5103665;28;20334;-60
2022/05/04 08:25:09;;;;;;;9.40;6.53;;;13.00;99.90;;;;;;5105505;28;20172;-60
2022/05/04 08:27:35;;;;;;;9.50;6.00;;;13.00;99.90;;;;;;5098594;28;20171;-60
2022/05/04 08:30:01;;;;;;;9.18;6.30;;;13.10;99.90;;;;;;5091868;28;20182;-61
2022/05/04 08:32:31;;;;;;;9.57;5.70;;;13.10;99.90;;;;;;5099953;28;20207;-60
2022/05/04 08:34:58;;;;;;;9.70;5.97;;;13.10;99.90;;;;;;5106781;28;20174;-60
2022/05/04 08:37:24;;;;;;;8.80;5.67;;;13.20;99.90;;;;;;5092707;28;20199;-60
2022/05/04 08:39:50;;;;;;;11.68;6.43;;;13.20;99.90;;;;;;5101818;28;20661;-58
2022/05/04 08:42:18;;;;;;;9.15;5.90;;;13.30;99.90;;;;;;5109680;28;20176;-59
2022/05/04 08:44:50;;;;;;;7.10;5.50;;;13.30;99.90;;;;;;5107212;28;20184;-57
2022/05/04 08:47:20;;;;;;;8.88;5.90;;;13.30;99.90;;;;;;5110413;28;20200;-57
2022/05/04 08:49:47;;;;;;;9.80;5.90;;;13.40;99.90;;;;;;5109925;28;20654;-58
2022/05/04 08:52:13;;;;;;;9.20;5.38;;;13.40;99.90;;;;;;5110901;28;20227;-64
2022/05/04 08:54:42;;;;;;;9.38;5.53;;;13.70;99.90;;;;;;5099777;28;20236;-58
2022/05/04 08:57:08;;;;;;;7.70;5.93;;;13.80;99.90;;;;;;5094310;28;20207;-64
2022/05/04 08:59:35;;;;;;;10.52;5.90;;;13.90;99.90;;;;;;5094099;28;20248;-68
2022/05/04 09:02:00;;;;;;;14.93;5.72;;;13.80;99.90;;;;;;5094767;28;20176;-66
2022/05/04 09:04:26;;;;;;;8.88;5.25;;;13.90;99.90;;;;;;5111467;28;20656;-71
2022/05/04 09:06:52;;;;;;;9.23;5.43;;;14.10;99.90;;;;;;5109883;27;20232;-63
2022/05/04 09:09:18;;;;;;;12.02;5.60;;;14.20;99.90;;;;;;5111284;28;20172;-60
2022/05/04 09:11:46;;;;;;;6.95;4.97;;;14.40;99.90;;;;;;5107814;28;20671;-60
2022/05/04 09:14:19;;;;;;;9.23;5.07;;;14.50;99.90;;;;;;5105211;28;20237;-60
2022/05/04 09:16:48;;;;;;;8.52;4.20;;;14.60;99.90;;;;;;5099860;28;20225;-60
2022/05/04 09:19:17;;;;;;;8.48;3.88;;;14.40;99.90;;;;;;5096951;28;20225;-61
2022/05/04 09:21:47;;;;;;;5.88;3.65;;;14.40;99.90;;;;;;5090531;28;20199;-60
2022/05/04 09:24:26;;;;;;;7.47;3.75;;;14.40;99.90;;;;;;5090643;28;20247;-59
2022/05/04 09:26:54;;;;;;;6.60;3.95;;;14.40;99.90;;;;;;5090169;28;20171;-62
2022/05/04 09:29:20;;;;;;;3.85;3.22;;;14.40;99.90;;;;;;5090117;28;20168;-59
2022/05/04 09:31:47;;;;;;;14.60;3.78;;;14.50;99.90;;;;;;5091021;28;20194;-60
2022/05/04 09:34:13;;;;;;;11.57;4.03;;;14.50;99.90;;;;;;5095062;28;20186;-60
2022/05/04 09:45:07;;;;;;;12.73;2.92;;;15.60;99.90;;;;;;5105500;28;20178;-59
2022/05/04 09:47:37;;;;;;;11.93;2.80;;;16.30;99.90;;;;;;5105699;28;20168;-60
2022/05/04 09:50:04;;;;;;;5.63;2.60;;;16.90;99.90;;;;;;5109252;28;20177;-60
2022/05/04 09:52:41;;;;;;;3.28;2.00;;;16.80;99.90;;;;;;5109138;28;20226;-59
2022/05/04 09:55:19;;;;;;;8.35;2.30;;;16.20;99.90;;;;;;5110009;28;20159;-59
2022/05/04 09:57:46;;;;;;;3.38;1.50;;;16.20;99.90;;;;;;5108405;28;20179;-59
2022/05/04 10:00:13;;;;;;;2.72;1.70;;;15.90;99.90;;;;;;5108979;28;20175;-60
2022/05/04 10:02:40;;;;;;;3.97;1.75;;;15.90;99.90;;;;;;5109930;28;20241;-60
2022/05/04 10:05:07;;;;;;;3.00;1.80;;;15.90;99.90;;;;;;5109488;28;20629;-60
2022/05/04 10:07:36;;;;;;;3.00;1.52;;;15.90;99.90;;;;;;5108419;28;20175;-64
2022/05/04 10:10:04;;;;;;;5.95;1.85;;;16.30;99.90;;;;;;5110608;28;20155;-59
2022/05/04 10:12:30;;;;;;;5.97;2.10;;;16.70;99.90;;;;;;5110549;28;20214;-58
2022/05/04 10:14:58;;;;;;;6.65;1.75;;;17.00;99.90;;;;;;5104697;28;20168;-57
2022/05/04 10:17:26;;;;;;;3.72;2.00;;;16.50;99.90;;;;;;5098289;28;20704;-57
2022/05/04 10:20:03;;;;;;;4.70;1.75;;;17.20;99.90;;;;;;5097639;28;20172;-57
2022/05/04 10:22:41;;;;;;;3.20;1.58;;;17.20;99.90;;;;;;5110553;28;20174;-57
2022/05/04 10:25:08;;;;;;;4.47;1.35;;;17.50;99.90;;;;;;5095611;28;20168;-57
2022/05/04 10:27:40;;;;;;;3.17;1.58;;;18.00;99.90;;;;;;5089815;28;20630;-57
2022/05/04 10:32:51;;;;;;;7.10;1.50;;;18.10;99.90;;;;;;5094161;28;20299;-57
2022/05/04 10:35:24;;;;;;;2.70;1.40;;;18.30;99.90;;;;;;5106054;28;20176;-57
2022/05/04 10:38:15;;;;;;;3.97;1.35;;;18.60;99.90;;;;;;5108175;28;20303;-57
2022/05/04 10:40:53;;;;;;;4.18;1.38;;;18.40;99.90;;;;;;5106314;28;20191;-57
2022/05/04 10:43:37;;;;;;;2.50;1.33;;;17.90;99.90;;;;;;5106437;28;20214;-57
2022/05/04 10:46:24;;;;;;;2.75;1.40;;;17.50;99.90;;;;;;5104826;28;20182;-57
2022/05/04 10:49:02;;;;;;;4.28;1.30;;;17.20;99.90;;;;;;5093798;28;20171;-58
2022/05/04 10:51:50;;;;;;;4.45;1.00;;;17.50;99.90;;;;;;5105315;28;20269;-57
2022/05/04 10:54:18;;;;;;;3.95;1.50;;;18.30;99.90;;;;;;5096470;28;20646;-57
2022/05/04 10:56:48;;;;;;;4.75;1.20;;;18.20;99.90;;;;;;5102299;28;20176;-57
2022/05/04 10:59:32;;;;;;;4.78;1.20;;;18.30;99.90;;;;;;5094197;28;20199;-57
2022/05/04 11:02:00;;;;;;;6.95;1.52;;;18.50;99.90;;;;;;5101635;28;20186;-57
2022/05/04 11:04:26;;;;;;;7.53;2.30;;;19.20;99.90;;;;;;5098541;28;20176;-57
2022/05/04 11:07:03;;;;;;;2.90;1.27;;;19.80;99.90;;;;;;5103851;28;20203;-58
2022/05/04 11:09:32;;;;;;;4.95;1.52;;;20.50;99.90;;;;;;5110320;28;20179;-58
2022/05/04 11:12:00;;;;;;;8.50;2.40;;;20.30;99.90;;;;;;5105161;27;20216;-58
2022/05/04 11:14:27;;;;;;;6.05;2.15;;;20.90;99.90;;;;;;5112647;28;20685;-57
2022/05/04 11:16:55;;;;;;;5.28;1.77;;;20.90;99.90;;;;;;5112618;28;20175;-58
2022/05/04 11:19:27;;;;;;;3.75;1.70;;;21.30;99.90;;;;;;5112757;28;20266;-58
2022/05/04 11:21:54;;;;;;;4.53;1.83;;;21.70;99.90;;;;;;5112672;27;20167;-58
2022/05/04 11:24:20;;;;;;;4.47;1.98;;;22.00;99.90;;;;;;5112470;28;20164;-58
2022/05/04 11:26:50;;;;;;;3.58;1.90;;;21.40;99.90;;;;;;5113803;28;20170;-58
2022/05/04 11:29:17;;;;;;;3.95;2.28;;;21.70;99.90;;;;;;5113797;28;20183;-58
2022/05/04 11:31:54;;;;;;;3.65;2.20;;;21.40;99.90;;;;;;5113811;28;20204;-58
2022/05/04 11:34:22;;;;;;;4.70;2.00;;;21.70;99.90;;;;;;5113803;28;20190;-57
2022/05/04 11:36:49;;;;;;;6.10;1.80;;;21.80;99.90;;;;;;5113799;28;20174;-58
2022/05/04 11:39:25;;;;;;;4.72;1.95;;;21.10;99.90;;;;;;5113790;27;20163;-58
2022/05/04 11:41:54;;;;;;;6.45;2.58;;;19.70;99.90;;;;;;5113607;27;20177;-58
2022/05/04 11:44:21;;;;;;;4.80;1.90;;;19.50;99.90;;;;;;5113200;28;20183;-58
2022/05/04 11:46:53;;;;;;;6.82;2.08;;;19.90;99.90;;;;;;5113710;28;20651;-58
2022/05/04 11:49:21;;;;;;;7.90;2.10;;;20.50;99.90;;;;;;5113468;28;20296;-58
2022/05/04 11:51:47;;;;;;;7.75;2.42;;;21.30;99.90;;;;;;5113305;28;20288;-58
2022/05/04 11:54:13;;;;;;;5.10;2.05;;;22.10;99.90;;;;;;5113385;27;20183;-58
2022/05/04 11:56:38;;;;;;;2.60;1.75;;;22.80;99.90;;;;;;5113334;28;20175;-58
2022/05/04 11:59:07;;;;;;;8.73;1.80;;;22.80;99.90;;;;;;5113249;28;20174;-58
2022/05/04 12:01:33;;;;;;;3.10;1.85;;;22.40;99.90;;;;;;5113346;28;20175;-58
2022/05/04 12:04:00;;;;;;;8.48;2.38;;;22.80;99.90;;;;;;5113105;28;20581;-58
2022/05/04 12:06:27;;;;;;;2.40;1.77;;;23.00;99.90;;;;;;5113193;28;20174;-57
2022/05/04 12:08:54;;;;;;;4.57;1.95;;;21.90;99.90;;;;;;5113157;28;20227;-58
2022/05/04 12:11:22;;;;;;;7.00;2.50;;;21.20;99.90;;;;;;5113361;28;20208;-57
2022/05/04 12:13:48;;;;;;;6.72;2.25;;;20.80;99.90;;;;;;5112760;28;20218;-58
2022/05/04 12:16:14;;;;;;;5.05;2.20;;;20.60;99.90;;;;;;5108346;28;20168;-58
2022/05/04 12:18:40;;;;;;;7.55;2.70;;;20.80;99.90;;;;;;5099849;28;20646;-57
2022/05/04 12:21:08;;;;;;;9.25;2.67;;;21.00;99.90;;;;;;5112877;27;20164;-58
2022/05/04 12:23:36;;;;;;;20.30;3.20;;;20.80;99.90;;;;;;5097693;28;20261;-58
2022/05/04 12:26:03;;;;;;;5.32;2.88;;;20.80;99.90;;;;;;5092122;28;20179;-57
2022/05/04 12:28:29;;;;;;;6.07;2.92;;;20.60;99.90;;;;;;5091018;28;20171;-58
2022/05/04 12:33:41;;;;;;;5.18;3.00;;;20.50;99.90;;;;;;5112447;28;20588;-57
2022/05/04 12:36:10;;;;;;;9.15;3.30;;;19.20;99.90;;;;;;5105542;28;20238;-58
2022/05/04 12:38:36;;;;;;;4.15;3.05;;;19.30;99.90;;;;;;5090816;28;20220;-57
2022/05/04 12:41:04;;;;;;;4.10;2.78;;;19.30;99.90;;;;;;5091387;28;20208;-58
2022/05/04 12:43:37;;;;;;;11.10;3.17;;;18.70;99.90;;;;;;5091361;28;20590;-58
2022/05/04 12:46:08;;;;;;;9.00;3.30;;;18.70;99.90;;;;;;5095258;28;20167;-58
2022/05/04 12:48:45;;;;;;;8.07;2.95;;;18.30;99.90;;;;;;5102056;28;20179;-58
2022/05/04 12:51:17;;;;;;;9.13;3.10;;;18.40;99.90;;;;;;5111711;28;20221;-58
2022/05/04 12:53:48;;;;;;;10.90;3.05;;;18.50;99.90;;;;;;5100014;28;20234;-58
2022/05/04 12:59:02;;;;;;;7.15;3.58;;;19.10;99.90;;;;;;5091521;28;20265;-61
2022/05/04 13:01:30;;;;;;;15.20;3.05;;;19.40;99.90;;;;;;5095068;28;20170;-58
2022/05/04 13:03:59;;;;;;;9.60;2.85;;;19.80;99.90;;;;;;5095130;28;20171;-58
2022/05/04 13:06:25;;;;;;;5.45;2.50;;;20.20;99.90;;;;;;5105099;28;20171;-58
2022/05/04 13:08:51;;;;;;;8.52;2.20;;;20.70;99.90;;;;;;5103546;28;20168;-58
2022/05/04 13:11:19;;;;;;;4.63;2.05;;;20.30;99.90;;;;;;5091975;28;20312;-59
2022/05/04 13:13:45;;;;;;;5.15;2.05;;;21.20;99.90;;;;;;5106581;28;20546;-57